sensor_id;sensor_type;location;lat;lon;timestamp;temperature;humidity
67572;SHT31;54397;47.506;19.158;2023-05-20T00:02:11;16.98;86.65
67572;SHT31;54397;47.506;19.158;2023-05-20T00:05:32;17.03;86.36
67572;SHT31;54397;47.506;19.158;2023-05-20T00:08:54;16.94;86.45
67572;SHT31;54397;47.506;19.158;2023-05-20T00:12:16;17.00;86.18
67572;SHT31;54397;47.506;19.158;2023-05-20T00:15:38;16.88;86.42
67572;SHT31;54397;47.506;19.158;2023-05-20T00:19:04;16.66;87.13
67572;SHT31;54397;47.506;19.158;2023-05-20T00:22:29;16.61;87.68
67572;SHT31;54397;47.506;19.158;2023-05-20T00:25:53;16.56;87.76
67572;SHT31;54397;47.506;19.158;2023-05-20T00:29:15;16.60;87.40
67572;SHT31;54397;47.506;19.158;2023-05-20T00:32:36;16.57;87.52
67572;SHT31;54397;47.506;19.158;2023-05-20T00:35:58;16.49;87.82
67572;SHT31;54397;47.506;19.158;2023-05-20T00:39:25;16.46;88.05
67572;SHT31;54397;47.506;19.158;2023-05-20T00:42:47;16.50;87.68
67572;SHT31;54397;47.506;19.158;2023-05-20T00:46:11;16.61;86.84
67572;SHT31;54397;47.506;19.158;2023-05-20T00:49:33;16.70;86.32
67572;SHT31;54397;47.506;19.158;2023-05-20T00:52:55;16.67;86.18
67572;SHT31;54397;47.506;19.158;2023-05-20T00:56:19;16.57;86.68
67572;SHT31;54397;47.506;19.158;2023-05-20T00:59:44;16.30;87.46
67572;SHT31;54397;47.506;19.158;2023-05-20T01:03:06;16.32;87.25
67572;SHT31;54397;47.506;19.158;2023-05-20T01:06:29;16.26;87.51
67572;SHT31;54397;47.506;19.158;2023-05-20T01:09:50;16.29;87.83
67572;SHT31;54397;47.506;19.158;2023-05-20T01:13:17;16.30;87.60
67572;SHT31;54397;47.506;19.158;2023-05-20T01:16:40;16.32;87.87
67572;SHT31;54397;47.506;19.158;2023-05-20T01:20:07;16.36;87.07
67572;SHT31;54397;47.506;19.158;2023-05-20T01:23:40;16.16;87.88
67572;SHT31;54397;47.506;19.158;2023-05-20T01:27:02;16.18;87.83
67572;SHT31;54397;47.506;19.158;2023-05-20T01:30:32;16.21;87.90
67572;SHT31;54397;47.506;19.158;2023-05-20T01:33:56;16.23;87.91
67572;SHT31;54397;47.506;19.158;2023-05-20T01:37:20;16.12;88.50
67572;SHT31;54397;47.506;19.158;2023-05-20T01:40:45;16.18;88.37
67572;SHT31;54397;47.506;19.158;2023-05-20T01:44:10;16.19;88.32
67572;SHT31;54397;47.506;19.158;2023-05-20T01:47:34;16.19;88.26
67572;SHT31;54397;47.506;19.158;2023-05-20T01:50:57;16.04;88.79
67572;SHT31;54397;47.506;19.158;2023-05-20T01:54:22;15.93;89.03
67572;SHT31;54397;47.506;19.158;2023-05-20T01:57:46;15.93;88.84
67572;SHT31;54397;47.506;19.158;2023-05-20T02:01:10;15.97;88.99
67572;SHT31;54397;47.506;19.158;2023-05-20T02:04:37;15.94;88.82
67572;SHT31;54397;47.506;19.158;2023-05-20T02:07:59;16.02;88.04
67572;SHT31;54397;47.506;19.158;2023-05-20T02:11:20;16.15;87.37
67572;SHT31;54397;47.506;19.158;2023-05-20T02:14:46;16.02;87.89
67572;SHT31;54397;47.506;19.158;2023-05-20T02:18:08;15.88;88.97
67572;SHT31;54397;47.506;19.158;2023-05-20T02:21:29;15.93;89.00
67572;SHT31;54397;47.506;19.158;2023-05-20T02:24:53;15.93;88.63
67572;SHT31;54397;47.506;19.158;2023-05-20T02:28:20;16.00;88.45
67572;SHT31;54397;47.506;19.158;2023-05-20T02:31:42;16.02;87.74
67572;SHT31;54397;47.506;19.158;2023-05-20T02:35:08;15.91;88.76
67572;SHT31;54397;47.506;19.158;2023-05-20T02:38:30;15.93;88.61
67572;SHT31;54397;47.506;19.158;2023-05-20T02:41:52;15.83;88.83
67572;SHT31;54397;47.506;19.158;2023-05-20T02:45:14;15.75;89.14
67572;SHT31;54397;47.506;19.158;2023-05-20T02:48:38;15.68;89.44
67572;SHT31;54397;47.506;19.158;2023-05-20T02:52:02;15.75;89.01
67572;SHT31;54397;47.506;19.158;2023-05-20T02:55:24;15.71;88.87
67572;SHT31;54397;47.506;19.158;2023-05-20T02:58:47;15.67;88.68
67572;SHT31;54397;47.506;19.158;2023-05-20T03:02:11;15.61;89.07
67572;SHT31;54397;47.506;19.158;2023-05-20T03:05:36;15.66;88.76
67572;SHT31;54397;47.506;19.158;2023-05-20T03:09:02;15.66;88.53
67572;SHT31;54397;47.506;19.158;2023-05-20T03:12:24;15.60;88.69
67572;SHT31;54397;47.506;19.158;2023-05-20T03:15:46;15.71;88.53
67572;SHT31;54397;47.506;19.158;2023-05-20T03:19:10;15.57;88.86
67572;SHT31;54397;47.506;19.158;2023-05-20T03:22:34;15.73;88.31
67572;SHT31;54397;47.506;19.158;2023-05-20T03:25:56;15.73;88.26
67572;SHT31;54397;47.506;19.158;2023-05-20T03:29:18;15.58;89.14
67572;SHT31;54397;47.506;19.158;2023-05-20T03:32:40;15.54;89.02
67572;SHT31;54397;47.506;19.158;2023-05-20T03:36:04;15.53;89.01
67572;SHT31;54397;47.506;19.158;2023-05-20T03:39:28;15.71;88.24
67572;SHT31;54397;47.506;19.158;2023-05-20T03:42:52;15.71;87.94
67572;SHT31;54397;47.506;19.158;2023-05-20T03:46:14;15.73;88.08
67572;SHT31;54397;47.506;19.158;2023-05-20T03:49:38;15.75;88.06
67572;SHT31;54397;47.506;19.158;2023-05-20T03:53:01;15.80;87.63
67572;SHT31;54397;47.506;19.158;2023-05-20T03:56:23;15.90;87.42
67572;SHT31;54397;47.506;19.158;2023-05-20T03:59:47;15.77;87.84
67572;SHT31;54397;47.506;19.158;2023-05-20T04:03:13;15.87;87.78
67572;SHT31;54397;47.506;19.158;2023-05-20T04:06:36;15.90;87.65
67572;SHT31;54397;47.506;19.158;2023-05-20T04:09:57;16.04;87.17
67572;SHT31;54397;47.506;19.158;2023-05-20T04:13:24;15.95;87.53
67572;SHT31;54397;47.506;19.158;2023-05-20T04:16:45;15.93;87.66
67572;SHT31;54397;47.506;19.158;2023-05-20T04:20:07;15.85;87.83
67572;SHT31;54397;47.506;19.158;2023-05-20T04:23:34;15.83;87.82
67572;SHT31;54397;47.506;19.158;2023-05-20T04:26:58;15.90;87.89
67572;SHT31;54397;47.506;19.158;2023-05-20T04:30:22;15.94;88.32
67572;SHT31;54397;47.506;19.158;2023-05-20T04:33:44;16.06;87.61
67572;SHT31;54397;47.506;19.158;2023-05-20T04:37:09;16.22;87.22
67572;SHT31;54397;47.506;19.158;2023-05-20T04:40:36;16.28;87.35
67572;SHT31;54397;47.506;19.158;2023-05-20T04:43:58;16.34;87.13
67572;SHT31;54397;47.506;19.158;2023-05-20T04:47:22;16.46;87.03
67572;SHT31;54397;47.506;19.158;2023-05-20T04:50:44;16.50;86.82
67572;SHT31;54397;47.506;19.158;2023-05-20T04:54:06;16.69;86.05
67572;SHT31;54397;47.506;19.158;2023-05-20T04:57:28;16.71;84.53
67572;SHT31;54397;47.506;19.158;2023-05-20T05:00:50;16.84;84.52
67572;SHT31;54397;47.506;19.158;2023-05-20T05:04:12;17.06;82.14
67572;SHT31;54397;47.506;19.158;2023-05-20T05:07:36;17.31;80.50
67572;SHT31;54397;47.506;19.158;2023-05-20T05:11:04;17.52;78.00
67572;SHT31;54397;47.506;19.158;2023-05-20T05:14:26;17.82;76.72
67572;SHT31;54397;47.506;19.158;2023-05-20T05:17:50;18.01;75.50
67572;SHT31;54397;47.506;19.158;2023-05-20T05:21:12;18.30;72.76
67572;SHT31;54397;47.506;19.158;2023-05-20T05:24:34;18.51;72.56
67572;SHT31;54397;47.506;19.158;2023-05-20T05:27:58;18.70;70.65
67572;SHT31;54397;47.506;19.158;2023-05-20T05:31:19;18.93;69.99
67572;SHT31;54397;47.506;19.158;2023-05-20T05:34:44;19.03;70.30
67572;SHT31;54397;47.506;19.158;2023-05-20T05:38:10;19.30;69.94
67572;SHT31;54397;47.506;19.158;2023-05-20T05:41:32;19.41;68.96
67572;SHT31;54397;47.506;19.158;2023-05-20T05:44:53;19.62;67.51
67572;SHT31;54397;47.506;19.158;2023-05-20T05:48:18;19.62;67.87
67572;SHT31;54397;47.506;19.158;2023-05-20T05:51:39;19.78;67.29
67572;SHT31;54397;47.506;19.158;2023-05-20T05:55:01;19.95;65.75
67572;SHT31;54397;47.506;19.158;2023-05-20T05:58:23;20.16;65.40
67572;SHT31;54397;47.506;19.158;2023-05-20T06:01:45;20.16;65.66
67572;SHT31;54397;47.506;19.158;2023-05-20T06:05:07;20.31;65.59
67572;SHT31;54397;47.506;19.158;2023-05-20T06:08:34;20.48;65.64
67572;SHT31;54397;47.506;19.158;2023-05-20T06:11:55;20.63;64.10
67572;SHT31;54397;47.506;19.158;2023-05-20T06:15:21;20.81;64.19
67572;SHT31;54397;47.506;19.158;2023-05-20T06:18:44;20.82;63.88
67572;SHT31;54397;47.506;19.158;2023-05-20T06:22:12;20.84;64.64
67572;SHT31;54397;47.506;19.158;2023-05-20T06:25:36;20.84;63.05
67572;SHT31;54397;47.506;19.158;2023-05-20T06:29:03;21.09;61.89
67572;SHT31;54397;47.506;19.158;2023-05-20T06:32:25;21.27;62.40
67572;SHT31;54397;47.506;19.158;2023-05-20T06:35:56;21.29;63.50
67572;SHT31;54397;47.506;19.158;2023-05-20T06:39:18;21.32;61.66
67572;SHT31;54397;47.506;19.158;2023-05-20T06:42:40;21.53;61.23
67572;SHT31;54397;47.506;19.158;2023-05-20T06:46:01;21.64;62.60
67572;SHT31;54397;47.506;19.158;2023-05-20T06:49:24;21.68;63.13
67572;SHT31;54397;47.506;19.158;2023-05-20T06:52:46;21.70;63.18
67572;SHT31;54397;47.506;19.158;2023-05-20T06:56:10;21.85;60.06
67572;SHT31;54397;47.506;19.158;2023-05-20T06:59:35;22.01;60.53
67572;SHT31;54397;47.506;19.158;2023-05-20T07:02:59;22.23;60.03
67572;SHT31;54397;47.506;19.158;2023-05-20T07:06:21;22.39;58.60
67572;SHT31;54397;47.506;19.158;2023-05-20T07:09:44;22.50;60.06
67572;SHT31;54397;47.506;19.158;2023-05-20T07:13:13;22.71;58.73
67572;SHT31;54397;47.506;19.158;2023-05-20T07:16:35;22.71;57.73
67572;SHT31;54397;47.506;19.158;2023-05-20T07:19:59;22.88;58.28
67572;SHT31;54397;47.506;19.158;2023-05-20T07:23:27;22.90;58.23
67572;SHT31;54397;47.506;19.158;2023-05-20T07:26:48;23.00;59.11
67572;SHT31;54397;47.506;19.158;2023-05-20T07:30:13;22.93;58.87
67572;SHT31;54397;47.506;19.158;2023-05-20T07:33:37;23.06;57.75
67572;SHT31;54397;47.506;19.158;2023-05-20T07:37:01;23.15;57.79
67572;SHT31;54397;47.506;19.158;2023-05-20T07:40:23;23.17;58.03
67572;SHT31;54397;47.506;19.158;2023-05-20T07:43:45;23.29;57.58
67572;SHT31;54397;47.506;19.158;2023-05-20T07:47:09;23.34;58.13
67572;SHT31;54397;47.506;19.158;2023-05-20T07:50:34;23.45;57.89
67572;SHT31;54397;47.506;19.158;2023-05-20T07:53:57;23.51;57.99
67572;SHT31;54397;47.506;19.158;2023-05-20T07:57:21;23.66;58.19
67572;SHT31;54397;47.506;19.158;2023-05-20T08:00:43;23.69;57.62
67572;SHT31;54397;47.506;19.158;2023-05-20T08:04:08;23.79;59.10
67572;SHT31;54397;47.506;19.158;2023-05-20T08:07:30;24.01;59.62
67572;SHT31;54397;47.506;19.158;2023-05-20T08:10:52;24.28;57.65
67572;SHT31;54397;47.506;19.158;2023-05-20T08:14:13;24.37;56.48
67572;SHT31;54397;47.506;19.158;2023-05-20T08:17:35;24.45;56.22
67572;SHT31;54397;47.506;19.158;2023-05-20T08:20:59;24.51;55.78
67572;SHT31;54397;47.506;19.158;2023-05-20T08:24:20;24.64;55.37
67572;SHT31;54397;47.506;19.158;2023-05-20T08:27:42;24.76;56.83
67572;SHT31;54397;47.506;19.158;2023-05-20T08:31:04;24.89;56.42
67572;SHT31;54397;47.506;19.158;2023-05-20T08:34:31;25.19;57.09
67572;SHT31;54397;47.506;19.158;2023-05-20T08:37:55;25.37;56.43
67572;SHT31;54397;47.506;19.158;2023-05-20T08:41:16;25.19;56.18
67572;SHT31;54397;47.506;19.158;2023-05-20T08:44:39;25.38;54.81
67572;SHT31;54397;47.506;19.158;2023-05-20T08:48:04;25.37;55.19
67572;SHT31;54397;47.506;19.158;2023-05-20T08:51:26;25.57;56.21
67572;SHT31;54397;47.506;19.158;2023-05-20T08:54:54;25.84;55.05
67572;SHT31;54397;47.506;19.158;2023-05-20T08:58:17;25.96;55.54
67572;SHT31;54397;47.506;19.158;2023-05-20T09:01:45;25.74;55.02
67572;SHT31;54397;47.506;19.158;2023-05-20T09:05:09;25.96;53.41
67572;SHT31;54397;47.506;19.158;2023-05-20T09:08:34;25.67;54.19
67572;SHT31;54397;47.506;19.158;2023-05-20T09:12:02;25.82;57.13
67572;SHT31;54397;47.506;19.158;2023-05-20T09:15:23;26.28;53.81
67572;SHT31;54397;47.506;19.158;2023-05-20T09:18:47;26.35;51.14
67572;SHT31;54397;47.506;19.158;2023-05-20T09:22:10;26.30;51.10
67572;SHT31;54397;47.506;19.158;2023-05-20T09:25:32;26.20;50.25
67572;SHT31;54397;47.506;19.158;2023-05-20T09:28:58;26.22;50.81
67572;SHT31;54397;47.506;19.158;2023-05-20T09:32:22;25.89;50.98
67572;SHT31;54397;47.506;19.158;2023-05-20T09:35:49;25.93;51.22
67572;SHT31;54397;47.506;19.158;2023-05-20T09:39:16;26.16;50.41
67572;SHT31;54397;47.506;19.158;2023-05-20T09:42:50;26.39;52.17
67572;SHT31;54397;47.506;19.158;2023-05-20T09:46:13;26.73;52.24
67572;SHT31;54397;47.506;19.158;2023-05-20T09:49:36;26.88;52.27
67572;SHT31;54397;47.506;19.158;2023-05-20T09:53:02;27.05;50.93
67572;SHT31;54397;47.506;19.158;2023-05-20T09:56:27;27.02;50.71
67572;SHT31;54397;47.506;19.158;2023-05-20T09:59:52;27.12;49.35
67572;SHT31;54397;47.506;19.158;2023-05-20T10:03:14;27.31;49.54
67572;SHT31;54397;47.506;19.158;2023-05-20T10:21:26;27.81;48.01
67572;SHT31;54397;47.506;19.158;2023-05-20T10:24:57;27.79;44.86
67572;SHT31;54397;47.506;19.158;2023-05-20T10:28:30;27.70;47.62
67572;SHT31;54397;47.506;19.158;2023-05-20T10:31:52;27.86;44.64
67572;SHT31;54397;47.506;19.158;2023-05-20T10:35:20;27.91;46.52
67572;SHT31;54397;47.506;19.158;2023-05-20T10:38:54;27.90;45.45
67572;SHT31;54397;47.506;19.158;2023-05-20T10:42:27;27.90;46.90
67572;SHT31;54397;47.506;19.158;2023-05-20T10:45:51;28.01;47.71
67572;SHT31;54397;47.506;19.158;2023-05-20T10:49:19;28.39;43.75
67572;SHT31;54397;47.506;19.158;2023-05-20T10:52:47;28.25;43.61
67572;SHT31;54397;47.506;19.158;2023-05-20T10:56:16;28.14;46.18
67572;SHT31;54397;47.506;19.158;2023-05-20T10:59:41;28.11;44.56
67572;SHT31;54397;47.506;19.158;2023-05-20T11:03:04;27.91;41.81
67572;SHT31;54397;47.506;19.158;2023-05-20T11:06:27;28.22;44.70
67572;SHT31;54397;47.506;19.158;2023-05-20T11:09:49;28.19;43.98
67572;SHT31;54397;47.506;19.158;2023-05-20T11:13:12;28.11;41.92
67572;SHT31;54397;47.506;19.158;2023-05-20T11:16:41;28.10;40.87
67572;SHT31;54397;47.506;19.158;2023-05-20T11:20:04;28.14;42.40
67572;SHT31;54397;47.506;19.158;2023-05-20T11:23:28;28.00;42.37
67572;SHT31;54397;47.506;19.158;2023-05-20T11:26:53;28.00;42.11
67572;SHT31;54397;47.506;19.158;2023-05-20T11:30:15;27.79;44.05
67572;SHT31;54397;47.506;19.158;2023-05-20T11:33:40;27.83;45.68
67572;SHT31;54397;47.506;19.158;2023-05-20T11:37:12;27.89;44.85
67572;SHT31;54397;47.506;19.158;2023-05-20T11:40:36;28.05;45.81
67572;SHT31;54397;47.506;19.158;2023-05-20T11:44:11;28.24;41.97
67572;SHT31;54397;47.506;19.158;2023-05-20T11:47:33;28.29;45.04
67572;SHT31;54397;47.506;19.158;2023-05-20T11:50:55;28.27;42.69
67572;SHT31;54397;47.506;19.158;2023-05-20T11:54:21;28.27;43.99
67572;SHT31;54397;47.506;19.158;2023-05-20T11:57:43;28.02;42.90
67572;SHT31;54397;47.506;19.158;2023-05-20T12:01:04;27.98;42.61
67572;SHT31;54397;47.506;19.158;2023-05-20T12:04:42;27.84;43.31
67572;SHT31;54397;47.506;19.158;2023-05-20T12:08:04;27.77;43.57
67572;SHT31;54397;47.506;19.158;2023-05-20T12:11:26;27.67;43.25
67572;SHT31;54397;47.506;19.158;2023-05-20T12:14:48;27.87;43.28
67572;SHT31;54397;47.506;19.158;2023-05-20T12:18:10;27.76;45.28
67572;SHT31;54397;47.506;19.158;2023-05-20T12:21:34;27.54;44.07
67572;SHT31;54397;47.506;19.158;2023-05-20T12:24:58;27.50;45.84
67572;SHT31;54397;47.506;19.158;2023-05-20T12:28:22;27.45;44.20
67572;SHT31;54397;47.506;19.158;2023-05-20T12:31:44;27.52;44.34
67572;SHT31;54397;47.506;19.158;2023-05-20T12:35:06;27.50;45.15
67572;SHT31;54397;47.506;19.158;2023-05-20T12:38:28;27.47;45.58
67572;SHT31;54397;47.506;19.158;2023-05-20T12:41:53;27.60;46.33
67572;SHT31;54397;47.506;19.158;2023-05-20T12:45:17;27.53;42.78
67572;SHT31;54397;47.506;19.158;2023-05-20T12:48:39;27.25;43.88
67572;SHT31;54397;47.506;19.158;2023-05-20T12:52:06;27.24;44.69
67572;SHT31;54397;47.506;19.158;2023-05-20T12:55:39;27.22;44.56
67572;SHT31;54397;47.506;19.158;2023-05-20T12:59:01;27.02;43.37
67572;SHT31;54397;47.506;19.158;2023-05-20T13:02:25;26.98;42.28
67572;SHT31;54397;47.506;19.158;2023-05-20T13:05:49;27.02;43.21
67572;SHT31;54397;47.506;19.158;2023-05-20T13:09:11;26.97;44.60
67572;SHT31;54397;47.506;19.158;2023-05-20T13:12:35;27.06;45.34
67572;SHT31;54397;47.506;19.158;2023-05-20T13:15:57;27.06;45.17
67572;SHT31;54397;47.506;19.158;2023-05-20T13:19:21;27.15;45.39
67572;SHT31;54397;47.506;19.158;2023-05-20T13:22:43;27.19;46.71
67572;SHT31;54397;47.506;19.158;2023-05-20T13:26:05;27.16;46.76
67572;SHT31;54397;47.506;19.158;2023-05-20T13:29:29;27.18;48.56
67572;SHT31;54397;47.506;19.158;2023-05-20T13:32:51;27.24;46.11
67572;SHT31;54397;47.506;19.158;2023-05-20T13:36:12;27.24;45.49
67572;SHT31;54397;47.506;19.158;2023-05-20T13:39:37;27.11;46.39
67572;SHT31;54397;47.506;19.158;2023-05-20T13:42:59;27.08;45.28
67572;SHT31;54397;47.506;19.158;2023-05-20T13:46:26;26.97;45.23
67572;SHT31;54397;47.506;19.158;2023-05-20T13:49:47;27.01;46.66
67572;SHT31;54397;47.506;19.158;2023-05-20T13:53:09;27.11;46.51
67572;SHT31;54397;47.506;19.158;2023-05-20T13:56:34;27.14;44.83
67572;SHT31;54397;47.506;19.158;2023-05-20T13:59:55;27.02;45.99
67572;SHT31;54397;47.506;19.158;2023-05-20T14:03:17;27.01;45.65
67572;SHT31;54397;47.506;19.158;2023-05-20T14:06:43;26.91;43.98
67572;SHT31;54397;47.506;19.158;2023-05-20T14:10:08;26.92;43.46
67572;SHT31;54397;47.506;19.158;2023-05-20T14:13:34;26.87;43.54
67572;SHT31;54397;47.506;19.158;2023-05-20T14:17:00;26.81;41.48
67572;SHT31;54397;47.506;19.158;2023-05-20T14:20:25;26.88;42.28
67572;SHT31;54397;47.506;19.158;2023-05-20T14:23:47;26.83;43.36
67572;SHT31;54397;47.506;19.158;2023-05-20T14:27:09;26.84;40.24
67572;SHT31;54397;47.506;19.158;2023-05-20T14:30:31;26.71;41.05
67572;SHT31;54397;47.506;19.158;2023-05-20T14:33:56;26.63;41.92
67572;SHT31;54397;47.506;19.158;2023-05-20T14:37:22;26.65;41.87
67572;SHT31;54397;47.506;19.158;2023-05-20T14:40:47;26.63;42.77
67572;SHT31;54397;47.506;19.158;2023-05-20T14:44:11;26.61;44.75
67572;SHT31;54397;47.506;19.158;2023-05-20T14:47:33;26.54;42.06
67572;SHT31;54397;47.506;19.158;2023-05-20T14:50:54;26.50;42.52
67572;SHT31;54397;47.506;19.158;2023-05-20T14:54:16;26.43;42.62
67572;SHT31;54397;47.506;19.158;2023-05-20T14:57:42;26.37;42.64
67572;SHT31;54397;47.506;19.158;2023-05-20T15:01:03;26.39;44.07
67572;SHT31;54397;47.506;19.158;2023-05-20T15:04:32;26.36;45.41
67572;SHT31;54397;47.506;19.158;2023-05-20T15:07:54;26.20;46.12
67572;SHT31;54397;47.506;19.158;2023-05-20T15:11:16;26.26;46.08
67572;SHT31;54397;47.506;19.158;2023-05-20T15:14:41;26.12;46.94
67572;SHT31;54397;47.506;19.158;2023-05-20T15:18:05;26.12;46.99
67572;SHT31;54397;47.506;19.158;2023-05-20T15:21:30;26.18;48.13
67572;SHT31;54397;47.506;19.158;2023-05-20T15:24:56;26.16;48.88
67572;SHT31;54397;47.506;19.158;2023-05-20T15:28:17;26.13;49.71
67572;SHT31;54397;47.506;19.158;2023-05-20T15:31:40;25.98;49.74
67572;SHT31;54397;47.506;19.158;2023-05-20T15:35:04;25.85;49.64
67572;SHT31;54397;47.506;19.158;2023-05-20T15:38:28;25.89;50.36
67572;SHT31;54397;47.506;19.158;2023-05-20T15:41:50;25.84;49.29
67572;SHT31;54397;47.506;19.158;2023-05-20T15:45:16;25.86;49.16
67572;SHT31;54397;47.506;19.158;2023-05-20T15:48:38;25.75;49.88
67572;SHT31;54397;47.506;19.158;2023-05-20T15:52:02;25.68;51.22
67572;SHT31;54397;47.506;19.158;2023-05-20T15:55:24;25.68;50.79
67572;SHT31;54397;47.506;19.158;2023-05-20T15:58:46;25.61;50.69
67572;SHT31;54397;47.506;19.158;2023-05-20T16:02:09;25.60;50.12
67572;SHT31;54397;47.506;19.158;2023-05-20T16:05:30;25.53;51.10
67572;SHT31;54397;47.506;19.158;2023-05-20T16:08:52;25.53;49.30
67572;SHT31;54397;47.506;19.158;2023-05-20T16:12:19;25.58;49.47
67572;SHT31;54397;47.506;19.158;2023-05-20T16:15:40;25.48;48.35
67572;SHT31;54397;47.506;19.158;2023-05-20T16:19:05;25.40;48.60
67572;SHT31;54397;47.506;19.158;2023-05-20T16:22:29;25.38;49.20
67572;SHT31;54397;47.506;19.158;2023-05-20T16:25:54;25.45;48.15
67572;SHT31;54397;47.506;19.158;2023-05-20T16:29:16;25.30;48.57
67572;SHT31;54397;47.506;19.158;2023-05-20T16:32:40;25.31;49.00
67572;SHT31;54397;47.506;19.158;2023-05-20T16:36:02;25.27;48.67
67572;SHT31;54397;47.506;19.158;2023-05-20T16:39:24;25.13;49.44
67572;SHT31;54397;47.506;19.158;2023-05-20T16:42:48;25.13;48.83
67572;SHT31;54397;47.506;19.158;2023-05-20T16:46:10;25.09;48.59
67572;SHT31;54397;47.506;19.158;2023-05-20T16:49:36;25.06;48.81
67572;SHT31;54397;47.506;19.158;2023-05-20T16:52:57;24.93;49.19
67572;SHT31;54397;47.506;19.158;2023-05-20T16:56:22;24.93;49.02
67572;SHT31;54397;47.506;19.158;2023-05-20T16:59:44;24.86;49.38
67572;SHT31;54397;47.506;19.158;2023-05-20T17:03:06;24.95;48.80
67572;SHT31;54397;47.506;19.158;2023-05-20T17:06:30;24.78;49.12
67572;SHT31;54397;47.506;19.158;2023-05-20T17:09:57;24.79;49.16
67572;SHT31;54397;47.506;19.158;2023-05-20T17:13:18;24.80;48.89
67572;SHT31;54397;47.506;19.158;2023-05-20T17:16:40;24.68;49.43
67572;SHT31;54397;47.506;19.158;2023-05-20T17:20:02;24.58;50.11
67572;SHT31;54397;47.506;19.158;2023-05-20T17:23:28;24.45;50.86
67572;SHT31;54397;47.506;19.158;2023-05-20T17:26:49;24.40;50.83
67572;SHT31;54397;47.506;19.158;2023-05-20T17:30:12;24.37;51.04
67572;SHT31;54397;47.506;19.158;2023-05-20T17:33:34;24.25;50.54
67572;SHT31;54397;47.506;19.158;2023-05-20T17:36:56;24.22;50.67
67572;SHT31;54397;47.506;19.158;2023-05-20T17:40:18;24.28;49.94
67572;SHT31;54397;47.506;19.158;2023-05-20T17:43:44;24.20;50.23
67572;SHT31;54397;47.506;19.158;2023-05-20T17:47:10;24.13;50.20
67572;SHT31;54397;47.506;19.158;2023-05-20T17:50:34;24.03;50.21
67572;SHT31;54397;47.506;19.158;2023-05-20T17:53:56;23.94;50.13
67572;SHT31;54397;47.506;19.158;2023-05-20T17:57:18;23.87;50.85
67572;SHT31;54397;47.506;19.158;2023-05-20T18:00:43;23.79;50.73
67572;SHT31;54397;47.506;19.158;2023-05-20T18:04:04;23.70;51.15
67572;SHT31;54397;47.506;19.158;2023-05-20T18:07:26;23.62;51.47
67572;SHT31;54397;47.506;19.158;2023-05-20T18:10:53;23.52;52.44
67572;SHT31;54397;47.506;19.158;2023-05-20T18:14:16;23.42;52.11
67572;SHT31;54397;47.506;19.158;2023-05-20T18:17:39;23.35;52.31
67572;SHT31;54397;47.506;19.158;2023-05-20T18:21:03;23.25;52.66
67572;SHT31;54397;47.506;19.158;2023-05-20T18:24:30;23.22;53.22
67572;SHT31;54397;47.506;19.158;2023-05-20T18:27:51;23.12;54.48
67572;SHT31;54397;47.506;19.158;2023-05-20T18:31:13;23.04;54.28
67572;SHT31;54397;47.506;19.158;2023-05-20T18:34:37;23.00;54.16
67572;SHT31;54397;47.506;19.158;2023-05-20T18:38:03;22.96;55.10
67572;SHT31;54397;47.506;19.158;2023-05-20T18:41:25;22.90;55.64
67572;SHT31;54397;47.506;19.158;2023-05-20T18:45:07;22.86;55.23
67572;SHT31;54397;47.506;19.158;2023-05-20T18:48:28;22.86;55.80
67572;SHT31;54397;47.506;19.158;2023-05-20T18:51:50;22.77;56.07
67572;SHT31;54397;47.506;19.158;2023-05-20T18:55:14;22.73;56.75
67572;SHT31;54397;47.506;19.158;2023-05-20T18:58:36;22.64;56.99
67572;SHT31;54397;47.506;19.158;2023-05-20T19:02:00;22.59;57.10
67572;SHT31;54397;47.506;19.158;2023-05-20T19:05:22;22.43;57.63
67572;SHT31;54397;47.506;19.158;2023-05-20T19:08:43;22.46;58.37
67572;SHT31;54397;47.506;19.158;2023-05-20T19:12:06;22.48;58.33
67572;SHT31;54397;47.506;19.158;2023-05-20T19:15:30;22.45;58.28
67572;SHT31;54397;47.506;19.158;2023-05-20T19:18:52;22.39;58.60
67572;SHT31;54397;47.506;19.158;2023-05-20T19:22:19;22.29;58.78
67572;SHT31;54397;47.506;19.158;2023-05-20T19:25:43;22.13;59.59
67572;SHT31;54397;47.506;19.158;2023-05-20T19:29:07;22.06;59.30
67572;SHT31;54397;47.506;19.158;2023-05-20T19:32:31;22.01;59.49
67572;SHT31;54397;47.506;19.158;2023-05-20T19:35:53;22.01;59.89
67572;SHT31;54397;47.506;19.158;2023-05-20T19:39:18;21.83;61.06
67572;SHT31;54397;47.506;19.158;2023-05-20T19:42:42;21.78;60.92
67572;SHT31;54397;47.506;19.158;2023-05-20T19:46:04;21.67;61.85
67572;SHT31;54397;47.506;19.158;2023-05-20T19:49:29;21.50;62.67
67572;SHT31;54397;47.506;19.158;2023-05-20T19:52:53;21.63;62.56
67572;SHT31;54397;47.506;19.158;2023-05-20T19:56:17;21.61;62.79
67572;SHT31;54397;47.506;19.158;2023-05-20T19:59:41;21.36;63.42
67572;SHT31;54397;47.506;19.158;2023-05-20T20:03:05;21.30;63.68
67572;SHT31;54397;47.506;19.158;2023-05-20T20:06:27;21.27;63.84
67572;SHT31;54397;47.506;19.158;2023-05-20T20:09:49;21.30;63.41
67572;SHT31;54397;47.506;19.158;2023-05-20T20:13:17;21.10;64.41
67572;SHT31;54397;47.506;19.158;2023-05-20T20:16:41;20.94;65.04
67572;SHT31;54397;47.506;19.158;2023-05-20T20:20:12;20.87;65.09
67572;SHT31;54397;47.506;19.158;2023-05-20T20:23:34;20.85;65.53
67572;SHT31;54397;47.506;19.158;2023-05-20T20:26:58;20.84;65.34
67572;SHT31;54397;47.506;19.158;2023-05-20T20:30:24;20.84;64.71
67572;SHT31;54397;47.506;19.158;2023-05-20T20:33:49;20.77;64.78
67572;SHT31;54397;47.506;19.158;2023-05-20T20:37:12;20.71;65.29
67572;SHT31;54397;47.506;19.158;2023-05-20T20:40:38;20.63;65.94
67572;SHT31;54397;47.506;19.158;2023-05-20T20:44:02;20.52;66.19
67572;SHT31;54397;47.506;19.158;2023-05-20T20:47:24;20.58;66.57
67572;SHT31;54397;47.506;19.158;2023-05-20T20:50:49;20.60;66.65
67572;SHT31;54397;47.506;19.158;2023-05-20T20:54:13;20.67;67.01
67572;SHT31;54397;47.506;19.158;2023-05-20T20:57:35;20.43;68.01
67572;SHT31;54397;47.506;19.158;2023-05-20T21:00:57;20.20;68.66
67572;SHT31;54397;47.506;19.158;2023-05-20T21:04:19;20.02;68.96
67572;SHT31;54397;47.506;19.158;2023-05-20T21:07:44;19.93;69.39
67572;SHT31;54397;47.506;19.158;2023-05-20T21:11:10;20.02;69.52
67572;SHT31;54397;47.506;19.158;2023-05-20T21:14:31;19.97;69.69
67572;SHT31;54397;47.506;19.158;2023-05-20T21:17:53;19.99;69.85
67572;SHT31;54397;47.506;19.158;2023-05-20T21:21:15;19.92;69.46